Time;durP1;ratioP1;P1;durP2;ratioP2;P2;SDS_P1;SDS_P2;PMS_P1;PMS_P2;Temp;Humidity;BMP_temperature;BMP_pressure;BME280_temperature;BME280_humidity;BME280_pressure;Samples;Min_cycle;Max_cycle;Signal;HPM_P1;HPM_P2
2021/05/23 00:02:25;;;;;;;15.15;8.93;;;19.70;49.30;;;;;;5095988;28;20047;-79
2021/05/23 00:04:51;;;;;;;14.43;8.43;;;19.70;49.40;;;;;;5095899;28;20036;-81
2021/05/23 00:07:21;;;;;;;19.50;9.00;;;19.70;49.60;;;;;;5095871;28;20028;-80
2021/05/23 00:09:47;;;;;;;13.38;8.40;;;19.60;49.70;;;;;;5077748;28;20032;-80
2021/05/23 00:12:16;;;;;;;13.05;8.65;;;19.60;49.60;;;;;;5094997;28;20489;-86
2021/05/23 00:14:42;;;;;;;19.13;8.48;;;19.60;49.80;;;;;;5094603;28;20062;-84
2021/05/23 00:17:08;;;;;;;15.60;8.82;;;19.50;50.00;;;;;;5095862;28;20093;-86
2021/05/23 00:19:35;;;;;;;15.88;8.30;;;19.50;50.10;;;;;;5093698;28;20052;-83
2021/05/23 00:22:01;;;;;;;13.80;8.57;;;19.40;50.10;;;;;;5094566;28;20129;-84
2021/05/23 00:24:27;;;;;;;12.18;8.40;;;19.40;50.20;;;;;;5095324;28;20169;-85
2021/05/23 00:26:53;;;;;;;18.27;9.85;;;19.40;50.30;;;;;;5094804;28;20568;-83
2021/05/23 00:29:19;;;;;;;18.42;9.75;;;19.40;50.20;;;;;;5094408;28;20480;-86
2021/05/23 00:31:45;;;;;;;12.10;8.85;;;19.40;50.10;;;;;;5095916;28;20093;-85
2021/05/23 00:34:12;;;;;;;15.10;8.25;;;19.40;50.30;;;;;;5094999;28;20040;-85
2021/05/23 00:36:38;;;;;;;10.07;6.63;;;19.40;50.20;;;;;;5095857;28;20150;-83
2021/05/23 00:39:05;;;;;;;10.93;6.85;;;19.40;50.20;;;;;;5096549;28;20059;-84
2021/05/23 00:41:32;;;;;;;12.68;6.38;;;19.40;50.10;;;;;;5095923;28;20036;-83
2021/05/23 00:43:59;;;;;;;9.45;6.05;;;19.40;50.20;;;;;;5110364;28;20557;-83
2021/05/23 00:46:24;;;;;;;14.15;6.38;;;19.40;50.20;;;;;;5116034;28;20088;-84
2021/05/23 00:48:50;;;;;;;12.30;6.13;;;19.40;50.20;;;;;;5116192;28;20035;-82
2021/05/23 00:51:16;;;;;;;13.05;6.68;;;19.40;50.30;;;;;;5097308;28;20032;-83
2021/05/23 00:53:42;;;;;;;14.48;6.25;;;19.40;50.40;;;;;;5115477;28;20036;-85
2021/05/23 00:56:08;;;;;;;13.10;6.13;;;19.30;50.60;;;;;;5115248;28;20031;-82
2021/05/23 00:58:34;;;;;;;9.75;7.03;;;19.30;50.70;;;;;;5115377;28;20046;-81
2021/05/23 01:01:11;;;;;;;11.88;6.40;;;19.30;50.60;;;;;;5115328;28;20043;-81
2021/05/23 01:03:37;;;;;;;11.70;6.35;;;19.30;50.70;;;;;;5115386;28;20387;-83
2021/05/23 01:06:05;;;;;;;13.77;6.72;;;19.30;50.80;;;;;;5115073;28;20429;-83
2021/05/23 01:08:33;;;;;;;13.65;7.30;;;19.30;50.70;;;;;;5114933;28;20028;-80
2021/05/23 01:11:08;;;;;;;13.93;7.45;;;19.30;50.80;;;;;;5115034;28;20047;-81
2021/05/23 01:13:35;;;;;;;15.13;6.90;;;19.20;51.00;;;;;;5097114;28;20104;-81
2021/05/23 01:16:11;;;;;;;13.43;6.72;;;19.30;51.20;;;;;;5114781;28;20476;-82
2021/05/23 01:19:01;;;;;;;14.57;6.25;;;19.20;51.20;;;;;;5115189;28;20023;-81
2021/05/23 01:21:31;;;;;;;10.32;6.55;;;19.10;51.30;;;;;;5100121;28;20104;-81
2021/05/23 01:24:03;;;;;;;13.27;7.05;;;19.20;51.20;;;;;;5114889;28;20439;-80
2021/05/23 01:26:37;;;;;;;12.60;6.03;;;19.10;51.30;;;;;;5114678;28;20032;-86
2021/05/23 01:29:09;;;;;;;20.27;7.72;;;19.00;51.60;;;;;;5114854;28;20395;-80
2021/05/23 01:31:36;;;;;;;16.40;7.53;;;18.90;52.00;;;;;;5115021;28;20093;-82
2021/05/23 01:34:03;;;;;;;13.48;6.78;;;19.00;51.90;;;;;;5114323;28;20062;-82
2021/05/23 01:36:36;;;;;;;10.15;6.57;;;19.00;51.80;;;;;;5114441;28;20054;-80
2021/05/23 01:39:06;;;;;;;14.20;7.72;;;19.00;52.10;;;;;;5114723;28;20067;-81
2021/05/23 01:41:32;;;;;;;12.32;7.43;;;19.00;52.20;;;;;;5114568;28;20495;-83
2021/05/23 01:43:59;;;;;;;14.63;7.72;;;19.00;52.10;;;;;;5113737;28;20051;-80
2021/05/23 01:46:26;;;;;;;13.23;6.78;;;19.00;52.20;;;;;;5113976;28;20122;-81
2021/05/23 01:48:52;;;;;;;14.80;8.05;;;18.90;52.30;;;;;;5114160;28;20035;-80
2021/05/23 01:51:18;;;;;;;13.02;7.43;;;18.90;52.40;;;;;;5114492;28;20039;-83
2021/05/23 01:53:44;;;;;;;15.45;7.20;;;18.90;52.50;;;;;;5114068;28;20077;-80
2021/05/23 01:56:10;;;;;;;15.63;7.13;;;18.90;52.40;;;;;;5114304;28;20042;-82
2021/05/23 01:58:36;;;;;;;11.05;7.15;;;18.80;52.60;;;;;;5114144;28;20031;-83
2021/05/23 02:01:03;;;;;;;11.18;7.35;;;18.70;52.70;;;;;;5114130;28;20050;-85
2021/05/23 02:03:31;;;;;;;13.45;6.78;;;18.80;52.80;;;;;;5113761;28;20036;-83
2021/05/23 02:05:59;;;;;;;12.18;6.50;;;18.80;52.70;;;;;;5096004;28;20058;-83
2021/05/23 02:08:27;;;;;;;19.35;8.13;;;18.70;52.90;;;;;;5114271;28;20043;-85
2021/05/23 02:10:57;;;;;;;14.07;6.97;;;18.70;52.80;;;;;;5096041;28;20031;-80
2021/05/23 02:13:24;;;;;;;14.98;7.53;;;18.70;52.90;;;;;;5113742;28;20036;-78
2021/05/23 02:15:50;;;;;;;10.80;6.85;;;18.70;53.00;;;;;;5095811;28;20062;-81
2021/05/23 02:18:17;;;;;;;11.30;6.20;;;18.70;53.00;;;;;;5095356;28;20504;-81
2021/05/23 02:20:43;;;;;;;13.30;6.90;;;18.80;52.90;;;;;;5113476;28;20035;-83
2021/05/23 02:23:17;;;;;;;12.75;6.57;;;18.90;52.60;;;;;;5114357;28;20046;-82
2021/05/23 02:25:43;;;;;;;10.10;6.63;;;19.10;52.40;;;;;;5079199;28;20040;-84
2021/05/23 02:28:11;;;;;;;10.52;6.65;;;19.10;52.20;;;;;;5114178;28;20035;-87
2021/05/23 02:30:50;;;;;;;11.50;6.57;;;19.30;51.70;;;;;;5120291;28;20067;-83
2021/05/23 02:33:16;;;;;;;11.63;6.28;;;19.40;51.40;;;;;;5098754;28;20085;-82
2021/05/23 02:35:45;;;;;;;11.32;6.35;;;19.60;51.20;;;;;;5113912;28;20556;-84
2021/05/23 02:38:12;;;;;;;14.25;6.43;;;19.70;51.10;;;;;;5095276;28;20431;-85
2021/05/23 02:40:39;;;;;;;14.70;5.85;;;19.90;50.80;;;;;;5113177;28;20483;-82
2021/05/23 02:43:07;;;;;;;9.23;6.20;;;20.00;50.60;;;;;;5075063;28;20476;-83
2021/05/23 02:45:37;;;;;;;13.70;5.72;;;20.10;50.10;;;;;;5078471;28;20515;-82
2021/05/23 02:48:07;;;;;;;9.57;5.90;;;20.10;50.00;;;;;;5113471;28;20039;-88
2021/05/23 02:50:36;;;;;;;13.98;6.40;;;20.20;50.00;;;;;;5095313;28;20043;-84
2021/05/23 02:53:06;;;;;;;14.45;6.53;;;20.30;49.80;;;;;;5112786;28;20047;-82
2021/05/23 02:55:32;;;;;;;9.25;5.60;;;20.30;49.60;;;;;;5077703;28;20055;-84
2021/05/23 02:57:58;;;;;;;8.18;5.90;;;20.40;49.50;;;;;;5113556;28;20552;-79
2021/05/23 03:00:24;;;;;;;7.75;5.68;;;20.30;49.70;;;;;;5113391;28;20061;-79
2021/05/23 03:02:51;;;;;;;14.63;6.05;;;20.10;49.70;;;;;;5079187;28;20492;-83
2021/05/23 03:05:22;;;;;;;10.48;6.18;;;20.10;49.80;;;;;;5113554;28;20046;-84
2021/05/23 03:07:51;;;;;;;14.68;6.20;;;20.00;50.00;;;;;;5113237;28;20043;-83
2021/05/23 03:10:20;;;;;;;7.88;5.20;;;19.90;50.30;;;;;;5094676;28;20491;-81
2021/05/23 03:12:46;;;;;;;8.23;5.68;;;19.80;50.60;;;;;;5112996;28;20036;-82
2021/05/23 03:15:16;;;;;;;12.32;5.68;;;19.70;50.70;;;;;;5113223;28;20028;-81
2021/05/23 03:17:42;;;;;;;10.25;5.60;;;19.70;50.80;;;;;;5094903;28;20092;-82
2021/05/23 03:20:11;;;;;;;10.45;5.80;;;19.50;51.20;;;;;;5112969;28;20038;-82
2021/05/23 03:22:39;;;;;;;11.23;5.28;;;19.50;51.40;;;;;;5094757;28;20053;-83
2021/05/23 03:25:07;;;;;;;9.32;5.50;;;19.40;51.40;;;;;;5112628;28;20039;-82
2021/05/23 03:27:33;;;;;;;10.60;6.07;;;19.40;51.50;;;;;;5113552;28;20067;-83
2021/05/23 03:29:59;;;;;;;13.93;7.50;;;19.50;51.50;;;;;;5113053;28;20031;-84
2021/05/23 03:32:25;;;;;;;11.32;5.85;;;19.50;51.30;;;;;;5113097;28;20036;-83
2021/05/23 03:34:51;;;;;;;9.18;5.63;;;19.70;51.20;;;;;;5094740;28;20040;-83
2021/05/23 03:37:18;;;;;;;10.40;5.95;;;19.90;50.90;;;;;;5112968;28;20031;-83
2021/05/23 03:39:44;;;;;;;10.65;5.97;;;20.10;51.20;;;;;;5112834;28;20060;-83
2021/05/23 03:42:11;;;;;;;10.70;5.35;;;20.30;50.20;;;;;;5077854;28;20039;-80
2021/05/23 03:44:37;;;;;;;8.10;5.47;;;20.60;49.80;;;;;;5113475;28;20104;-81
2021/05/23 03:47:03;;;;;;;8.75;5.82;;;20.90;49.30;;;;;;5113598;28;20032;-83
2021/05/23 03:49:29;;;;;;;14.90;5.55;;;21.20;48.70;;;;;;5112674;28;20051;-81
2021/05/23 03:51:55;;;;;;;10.02;6.50;;;21.30;48.50;;;;;;5112814;28;20043;-83
2021/05/23 03:54:21;;;;;;;9.45;6.15;;;21.40;48.20;;;;;;5112821;28;20035;-81
2021/05/23 03:56:46;;;;;;;13.27;6.47;;;21.50;48.10;;;;;;5094285;28;20039;-83
2021/05/23 03:59:12;;;;;;;11.77;5.78;;;21.70;47.90;;;;;;5113134;28;20071;-81
2021/05/23 04:01:38;;;;;;;11.68;5.97;;;21.90;47.60;;;;;;5112782;28;20494;-83
2021/05/23 04:04:07;;;;;;;12.25;5.75;;;22.00;47.30;;;;;;5112376;28;20035;-84
2021/05/23 04:06:33;;;;;;;9.57;5.78;;;22.10;47.20;;;;;;5112632;28;20034;-84
2021/05/23 04:08:59;;;;;;;13.73;6.55;;;22.30;47.00;;;;;;5114925;28;20035;-81
2021/05/23 04:11:32;;;;;;;13.75;5.63;;;22.30;46.80;;;;;;5116462;28;20043;-81
2021/05/23 04:13:58;;;;;;;10.35;5.78;;;22.50;46.30;;;;;;5098407;28;20415;-83
2021/05/23 04:16:23;;;;;;;10.88;6.22;;;22.70;46.00;;;;;;5115877;28;20039;-83
2021/05/23 04:18:49;;;;;;;9.10;6.00;;;22.80;46.10;;;;;;5116142;28;20118;-79
2021/05/23 04:21:15;;;;;;;8.20;5.40;;;22.90;46.00;;;;;;5080718;28;20457;-80
2021/05/23 04:23:41;;;;;;;12.05;5.65;;;23.10;45.70;;;;;;5115729;28;20123;-80
2021/05/23 04:26:07;;;;;;;8.82;5.40;;;23.20;45.50;;;;;;5116276;28;20442;-83
2021/05/23 04:28:33;;;;;;;13.77;5.78;;;23.30;45.00;;;;;;5116368;28;20526;-85
2021/05/23 04:30:59;;;;;;;10.80;5.60;;;23.60;45.00;;;;;;5115917;28;20058;-80
2021/05/23 04:33:25;;;;;;;11.15;5.43;;;23.70;44.60;;;;;;5097805;28;20079;-85
2021/05/23 04:35:52;;;;;;;9.02;4.88;;;23.80;44.50;;;;;;5116186;28;20051;-88
2021/05/23 04:38:18;;;;;;;9.15;5.32;;;23.90;44.20;;;;;;5097490;28;20035;-88
2021/05/23 04:40:44;;;;;;;8.82;4.85;;;24.20;43.90;;;;;;5115535;28;20108;-93
2021/05/23 04:43:10;;;;;;;9.43;4.85;;;24.30;43.60;;;;;;5115909;28;20554;-89
2021/05/23 04:45:37;;;;;;;9.93;5.13;;;24.60;43.20;;;;;;5116032;28;20062;-91
2021/05/23 04:48:03;;;;;;;7.18;4.80;;;24.70;43.10;;;;;;5115487;28;20412;-91
2021/05/23 04:50:30;;;;;;;7.28;4.38;;;24.80;43.00;;;;;;5097276;28;20055;-92
2021/05/23 04:52:55;;;;;;;8.45;4.45;;;25.00;42.70;;;;;;5115322;28;20115;-80
2021/05/23 04:55:21;;;;;;;6.97;3.78;;;25.10;42.00;;;;;;5115221;28;20126;-82
2021/05/23 04:57:47;;;;;;;5.97;4.05;;;25.40;42.20;;;;;;5115219;28;20038;-77
2021/05/23 05:00:14;;;;;;;8.13;3.40;;;25.60;41.90;;;;;;5115458;28;20027;-81
2021/05/23 05:02:44;;;;;;;8.98;3.70;;;25.70;40.70;;;;;;5115087;28;20067;-77
2021/05/23 05:05:11;;;;;;;10.40;3.60;;;25.90;39.90;;;;;;5115177;28;20039;-76
2021/05/23 05:07:38;;;;;;;5.82;3.17;;;26.00;40.50;;;;;;5097060;28;20032;-78
2021/05/23 05:10:05;;;;;;;8.10;3.65;;;26.20;40.00;;;;;;5079932;28;20027;-77
2021/05/23 05:12:31;;;;;;;10.05;3.75;;;26.20;40.30;;;;;;5114764;28;20046;-77
2021/05/23 05:14:57;;;;;;;4.82;3.20;;;26.30;39.40;;;;;;5096705;28;20047;-78
2021/05/23 05:17:24;;;;;;;10.38;2.95;;;26.40;39.00;;;;;;5096606;28;20032;-76
2021/05/23 05:19:49;;;;;;;6.53;3.05;;;26.60;39.50;;;;;;5114447;28;20047;-76
2021/05/23 05:22:15;;;;;;;8.27;3.20;;;26.60;39.00;;;;;;5114788;28;20188;-76
2021/05/23 05:24:41;;;;;;;8.27;2.88;;;26.80;39.60;;;;;;5114700;28;20043;-77
2021/05/23 05:27:07;;;;;;;8.65;2.40;;;27.00;38.80;;;;;;5114775;28;20407;-77
2021/05/23 05:29:33;;;;;;;4.70;2.30;;;27.00;37.50;;;;;;5114622;28;20126;-77
2021/05/23 05:32:01;;;;;;;5.03;2.50;;;27.20;38.10;;;;;;5114612;28;20031;-81
2021/05/23 05:34:28;;;;;;;4.70;2.10;;;27.40;38.30;;;;;;5114221;28;20067;-84
2021/05/23 05:36:54;;;;;;;5.53;2.00;;;27.40;36.50;;;;;;5114413;28;20031;-81
2021/05/23 05:39:20;;;;;;;3.50;1.90;;;27.50;36.60;;;;;;5115065;28;20039;-86
2021/05/23 05:41:48;;;;;;;4.32;2.17;;;27.60;35.90;;;;;;5095906;28;20024;-87
2021/05/23 05:44:14;;;;;;;4.72;1.67;;;27.70;35.70;;;;;;5089920;28;20058;-88
2021/05/23 05:46:41;;;;;;;4.38;1.70;;;28.00;35.70;;;;;;5093071;28;20044;-87
2021/05/23 05:49:10;;;;;;;4.55;1.70;;;28.10;35.20;;;;;;5092072;28;20020;-90
2021/05/23 05:51:36;;;;;;;3.17;1.55;;;28.30;36.00;;;;;;5093727;28;20032;-88
2021/05/23 05:54:02;;;;;;;4.68;1.70;;;28.50;35.50;;;;;;5093826;28;20042;-86
2021/05/23 05:56:34;;;;;;;4.32;1.52;;;28.80;34.80;;;;;;5092701;28;20036;-87
2021/05/23 05:59:00;;;;;;;6.13;1.65;;;29.20;35.40;;;;;;5092612;28;20122;-84
2021/05/23 06:01:26;;;;;;;8.23;2.20;;;29.50;35.20;;;;;;5093745;28;20047;-86
2021/05/23 06:03:53;;;;;;;7.80;2.00;;;29.70;35.00;;;;;;5075431;28;20040;-89
2021/05/23 06:06:20;;;;;;;9.40;1.80;;;29.60;33.90;;;;;;5096880;28;20039;-85
2021/05/23 06:08:46;;;;;;;5.60;1.50;;;29.40;34.20;;;;;;5101507;28;20039;-77
2021/05/23 06:11:12;;;;;;;6.32;1.63;;;29.30;34.20;;;;;;5093398;28;20153;-81
2021/05/23 06:13:38;;;;;;;6.25;1.40;;;29.20;34.60;;;;;;5093294;28;20042;-78
2021/05/23 06:16:04;;;;;;;8.50;1.35;;;28.90;34.70;;;;;;5092952;28;20032;-76
2021/05/23 06:18:30;;;;;;;6.13;1.27;;;28.80;34.50;;;;;;5092746;28;20492;-77
2021/05/23 06:20:56;;;;;;;3.08;1.63;;;28.60;34.80;;;;;;5093088;28;20039;-76
2021/05/23 06:23:22;;;;;;;7.53;1.70;;;28.40;34.90;;;;;;5092884;28;20071;-77
2021/05/23 06:25:48;;;;;;;2.92;1.40;;;28.20;34.80;;;;;;5092782;28;20074;-80
2021/05/23 06:28:14;;;;;;;4.85;1.10;;;28.10;35.40;;;;;;5091529;28;20059;-76
2021/05/23 06:30:40;;;;;;;3.97;0.95;;;28.10;35.10;;;;;;5090648;28;20036;-76
2021/05/23 06:33:06;;;;;;;2.42;0.93;;;28.30;34.70;;;;;;5093337;28;20105;-82
2021/05/23 06:35:33;;;;;;;0.98;0.90;;;28.20;35.00;;;;;;5091900;28;20038;-75
2021/05/23 06:37:59;;;;;;;3.92;1.00;;;28.00;34.70;;;;;;5093571;28;20036;-76
2021/05/23 06:40:25;;;;;;;6.25;1.27;;;27.80;34.70;;;;;;5092777;28;20135;-76
2021/05/23 06:42:51;;;;;;;2.40;0.98;;;27.60;34.70;;;;;;5093414;28;20031;-80
2021/05/23 06:45:17;;;;;;;3.55;1.08;;;27.60;34.80;;;;;;5107248;28;20063;-82
2021/05/23 06:47:44;;;;;;;6.00;1.23;;;27.70;35.30;;;;;;5110968;28;20487;-77
2021/05/23 06:50:10;;;;;;;2.63;0.80;;;27.60;34.00;;;;;;5103838;28;20036;-78
2021/05/23 06:52:36;;;;;;;3.28;1.20;;;27.60;34.40;;;;;;5098949;28;20043;-77
2021/05/23 06:55:04;;;;;;;2.70;0.93;;;27.50;35.00;;;;;;5103882;28;20040;-77
2021/05/23 06:57:31;;;;;;;2.85;0.90;;;27.70;35.00;;;;;;5099662;28;20028;-82
2021/05/23 06:59:57;;;;;;;4.20;1.00;;;27.70;34.20;;;;;;5064394;28;20495;-81
2021/05/23 07:02:23;;;;;;;2.38;1.00;;;27.80;34.40;;;;;;5093058;28;20124;-78
2021/05/23 07:04:49;;;;;;;5.35;0.88;;;27.70;34.50;;;;;;5074648;28;20126;-82
2021/05/23 07:07:15;;;;;;;5.10;1.17;;;27.60;34.50;;;;;;5092854;28;20140;-79
2021/05/23 07:09:42;;;;;;;5.55;1.00;;;27.50;34.60;;;;;;5093081;28;20024;-78
2021/05/23 07:12:08;;;;;;;2.83;0.75;;;27.20;34.00;;;;;;5092550;28;20036;-78
2021/05/23 07:14:34;;;;;;;3.10;0.93;;;27.00;33.30;;;;;;5092921;28;20625;-78
2021/05/23 07:17:00;;;;;;;2.25;0.90;;;27.00;33.30;;;;;;5092924;28;20058;-78
2021/05/23 07:19:26;;;;;;;3.70;0.90;;;26.80;33.80;;;;;;5092340;28;20032;-81
2021/05/23 07:21:52;;;;;;;5.40;0.98;;;26.60;34.10;;;;;;5074894;28;20028;-82
2021/05/23 07:24:18;;;;;;;4.68;1.00;;;26.70;34.60;;;;;;5092621;28;20043;-81
2021/05/23 07:26:44;;;;;;;4.55;1.00;;;26.90;35.20;;;;;;5092388;28;20492;-79
2021/05/23 07:29:10;;;;;;;4.20;0.90;;;26.80;35.00;;;;;;5092548;28;20510;-79
2021/05/23 07:31:36;;;;;;;4.35;1.10;;;26.70;34.90;;;;;;5092545;28;20514;-80
2021/05/23 07:34:03;;;;;;;5.50;0.85;;;26.70;35.40;;;;;;5092542;28;20032;-78
2021/05/23 07:36:29;;;;;;;2.28;0.70;;;26.60;36.10;;;;;;5092604;28;20047;-77
2021/05/23 07:38:55;;;;;;;1.25;0.80;;;26.50;35.40;;;;;;5074495;28;20036;-78
2021/05/23 07:41:22;;;;;;;6.55;1.20;;;26.60;35.50;;;;;;5092306;28;20059;-74
2021/05/23 07:43:48;;;;;;;2.47;0.70;;;26.70;36.00;;;;;;5094597;28;20385;-74
2021/05/23 07:46:14;;;;;;;3.78;1.08;;;26.70;35.70;;;;;;5096336;28;20165;-76
2021/05/23 07:48:40;;;;;;;4.63;0.90;;;26.60;35.40;;;;;;5096723;28;20048;-75
2021/05/23 07:51:06;;;;;;;5.05;1.13;;;26.50;35.00;;;;;;5096135;28;20043;-70
2021/05/23 07:53:32;;;;;;;6.00;2.35;;;26.50;35.10;;;;;;5095881;28;20032;-69
2021/05/23 07:55:58;;;;;;;3.15;1.35;;;26.40;35.70;;;;;;5095853;28;20054;-70
2021/05/23 07:58:25;;;;;;;1.48;0.70;;;26.40;35.50;;;;;;5096107;28;20077;-70
2021/05/23 08:00:51;;;;;;;4.57;1.10;;;26.10;35.00;;;;;;5095908;28;20081;-70
2021/05/23 08:03:16;;;;;;;4.00;0.80;;;26.20;36.00;;;;;;5095881;28;20458;-70
2021/05/23 08:05:43;;;;;;;4.13;0.93;;;26.10;35.90;;;;;;5095859;28;20032;-70
2021/05/23 08:08:09;;;;;;;1.35;0.70;;;26.10;36.20;;;;;;5095894;28;20043;-69
2021/05/23 08:10:35;;;;;;;3.22;0.80;;;26.10;35.70;;;;;;5095560;28;20047;-70
2021/05/23 08:13:01;;;;;;;3.65;0.98;;;26.10;35.90;;;;;;5077440;28;20036;-70
2021/05/23 08:15:27;;;;;;;3.63;0.90;;;25.90;35.50;;;;;;5095929;28;20122;-71
2021/05/23 08:17:53;;;;;;;1.70;0.80;;;25.80;36.30;;;;;;5095346;28;20580;-70
2021/05/23 08:20:19;;;;;;;5.07;0.82;;;25.50;36.50;;;;;;5095471;28;20036;-70
2021/05/23 08:22:45;;;;;;;3.80;0.80;;;25.50;35.70;;;;;;5095679;28;20055;-71
2021/05/23 08:25:12;;;;;;;10.50;0.95;;;25.40;35.90;;;;;;5111200;28;20032;-69
2021/05/23 08:27:39;;;;;;;3.30;0.85;;;25.20;35.70;;;;;;5077324;28;20036;-69
2021/05/23 08:30:07;;;;;;;3.25;1.20;;;25.10;36.20;;;;;;5095098;28;20126;-71
2021/05/23 08:32:32;;;;;;;4.68;1.00;;;25.00;35.90;;;;;;5095469;28;20116;-70
2021/05/23 08:34:58;;;;;;;2.38;0.90;;;24.80;36.20;;;;;;5095314;28;20040;-72
2021/05/23 08:37:24;;;;;;;1.70;0.80;;;24.90;36.10;;;;;;5095175;28;20050;-70
2021/05/23 08:39:50;;;;;;;2.10;0.80;;;24.90;36.30;;;;;;5094982;28;20097;-70
2021/05/23 08:42:16;;;;;;;0.95;0.90;;;24.90;36.50;;;;;;5095046;28;20052;-70
2021/05/23 08:44:42;;;;;;;2.80;0.80;;;24.90;36.60;;;;;;5094447;28;20058;-70
2021/05/23 08:47:09;;;;;;;3.70;0.80;;;25.00;36.60;;;;;;5097560;28;20131;-78
2021/05/23 08:49:35;;;;;;;1.85;1.00;;;24.90;36.50;;;;;;5080036;28;20123;-79
2021/05/23 08:52:01;;;;;;;3.97;1.00;;;24.90;36.70;;;;;;5115455;28;20452;-77
2021/05/23 08:54:29;;;;;;;2.22;0.80;;;24.80;36.50;;;;;;5114908;28;20123;-78
2021/05/23 08:56:55;;;;;;;3.30;0.63;;;24.90;36.50;;;;;;5115369;28;20159;-78
2021/05/23 08:59:21;;;;;;;3.47;1.05;;;24.90;36.50;;;;;;5096795;28;20053;-77
2021/05/23 09:01:48;;;;;;;2.65;0.93;;;24.80;36.10;;;;;;5114967;28;20039;-78
2021/05/23 09:04:19;;;;;;;5.10;1.08;;;24.90;36.30;;;;;;5114981;28;20515;-77
2021/05/23 09:06:46;;;;;;;5.38;0.90;;;24.80;36.70;;;;;;5114892;28;20122;-81
2021/05/23 09:09:15;;;;;;;2.60;1.00;;;24.80;36.80;;;;;;5115428;28;20077;-76
2021/05/23 09:11:53;;;;;;;3.08;1.20;;;24.90;37.10;;;;;;5114974;28;20398;-80
2021/05/23 09:14:37;;;;;;;5.80;1.00;;;24.90;37.60;;;;;;5096751;28;20039;-79
2021/05/23 09:17:05;;;;;;;3.63;1.40;;;24.90;37.70;;;;;;5097180;28;20038;-79
2021/05/23 09:19:43;;;;;;;6.43;1.40;;;24.90;37.30;;;;;;5115064;28;20114;-77
2021/05/23 09:22:11;;;;;;;6.57;1.20;;;25.00;37.40;;;;;;5114918;28;20491;-78
2021/05/23 09:24:47;;;;;;;5.32;1.20;;;25.10;37.70;;;;;;5113971;28;20114;-77
2021/05/23 09:27:13;;;;;;;4.30;1.23;;;25.10;37.70;;;;;;5112102;28;20132;-77
2021/05/23 09:29:39;;;;;;;3.65;1.00;;;25.10;37.70;;;;;;5114009;28;20499;-77
2021/05/23 09:32:17;;;;;;;4.22;1.15;;;25.20;37.80;;;;;;5095651;28;20050;-76
2021/05/23 09:34:47;;;;;;;3.65;1.20;;;25.10;37.40;;;;;;5095905;28;20416;-76
2021/05/23 09:37:15;;;;;;;2.65;1.10;;;25.00;37.60;;;;;;5114376;28;20143;-78
2021/05/23 09:39:42;;;;;;;4.95;1.15;;;25.00;37.90;;;;;;5113961;28;20365;-76
2021/05/23 09:42:15;;;;;;;5.20;1.00;;;25.10;37.90;;;;;;5095867;28;20035;-77
2021/05/23 09:44:42;;;;;;;5.82;1.23;;;25.20;37.60;;;;;;5113730;28;20167;-77
2021/05/23 09:47:11;;;;;;;1.60;1.08;;;25.20;37.20;;;;;;5094957;28;20027;-78
2021/05/23 09:49:56;;;;;;;3.80;1.17;;;25.10;37.10;;;;;;5111026;28;20483;-78
2021/05/23 09:52:36;;;;;;;6.28;1.00;;;25.10;36.80;;;;;;5111942;28;20039;-77
2021/05/23 09:55:04;;;;;;;2.92;0.82;;;24.90;36.90;;;;;;5093158;28;20128;-74
2021/05/23 09:57:30;;;;;;;3.47;0.85;;;24.90;36.80;;;;;;5114018;28;20042;-76
2021/05/23 10:00:11;;;;;;;4.90;1.48;;;24.90;37.00;;;;;;5111020;28;20028;-73
2021/05/23 10:02:54;;;;;;;2.03;0.80;;;25.00;37.10;;;;;;5079492;28;20497;-75
2021/05/23 10:05:21;;;;;;;2.50;1.02;;;24.90;36.50;;;;;;5112448;28;20039;-77
2021/05/23 10:07:47;;;;;;;1.75;0.80;;;25.10;36.60;;;;;;5095219;28;20043;-75
2021/05/23 10:10:14;;;;;;;5.93;0.88;;;24.90;36.40;;;;;;5095140;28;20028;-75
2021/05/23 10:12:44;;;;;;;2.85;1.00;;;24.90;35.90;;;;;;5113418;28;20563;-75
2021/05/23 10:15:12;;;;;;;3.05;1.05;;;25.00;36.00;;;;;;5113359;28;20061;-76
2021/05/23 10:17:39;;;;;;;2.50;1.30;;;25.10;36.30;;;;;;5095309;28;20118;-76
2021/05/23 10:20:08;;;;;;;4.30;0.95;;;25.10;36.40;;;;;;5112878;28;20040;-75
2021/05/23 10:22:36;;;;;;;8.88;1.10;;;25.10;36.40;;;;;;5113316;28;20027;-75
2021/05/23 10:25:07;;;;;;;1.23;0.80;;;25.10;35.90;;;;;;5113137;28;20046;-76
2021/05/23 10:27:37;;;;;;;6.30;0.80;;;25.10;36.00;;;;;;5111146;28;20065;-76
2021/05/23 10:30:06;;;;;;;4.15;1.27;;;25.10;35.60;;;;;;5112920;28;20067;-76
2021/05/23 10:32:35;;;;;;;2.83;1.10;;;25.20;36.10;;;;;;5112800;28;20480;-76
2021/05/23 10:35:16;;;;;;;4.15;1.00;;;25.00;36.10;;;;;;5113359;28;20034;-76
2021/05/23 10:37:44;;;;;;;2.35;1.00;;;25.10;36.00;;;;;;5111840;28;20051;-77
2021/05/23 10:40:17;;;;;;;2.00;1.00;;;25.20;35.70;;;;;;5110072;28;20024;-76
2021/05/23 10:42:53;;;;;;;3.80;0.85;;;25.20;35.90;;;;;;5113199;28;20034;-76
2021/05/23 10:45:24;;;;;;;1.83;0.90;;;25.20;36.00;;;;;;5112840;28;20082;-76
2021/05/23 10:47:51;;;;;;;2.55;2.13;;;25.10;35.80;;;;;;5095115;28;20040;-75
2021/05/23 10:50:17;;;;;;;1.00;0.82;;;25.10;36.00;;;;;;5112312;28;20031;-75
2021/05/23 10:52:44;;;;;;;6.50;1.00;;;25.10;35.70;;;;;;5112791;28;20031;-76
2021/05/23 10:55:16;;;;;;;3.47;0.98;;;25.20;35.50;;;;;;5109965;28;20027;-78
2021/05/23 10:57:46;;;;;;;5.05;0.95;;;25.10;35.10;;;;;;5094836;28;20105;-81
2021/05/23 11:00:34;;;;;;;2.60;0.77;;;25.10;34.90;;;;;;5113249;28;20471;-78
2021/05/23 11:03:10;;;;;;;2.85;0.88;;;25.10;34.70;;;;;;5113195;28;20042;-77
2021/05/23 11:05:36;;;;;;;1.10;0.85;;;25.20;34.90;;;;;;5094865;28;20047;-76
2021/05/23 11:08:05;;;;;;;1.95;0.85;;;25.30;34.90;;;;;;5112975;28;20027;-81
2021/05/23 11:10:32;;;;;;;4.57;0.95;;;25.30;34.50;;;;;;5077872;28;20036;-81
2021/05/23 11:13:00;;;;;;;5.60;1.02;;;25.30;34.40;;;;;;5093998;28;20042;-83
2021/05/23 11:15:48;;;;;;;2.17;0.70;;;25.20;34.30;;;;;;5111904;28;20407;-78
2021/05/23 11:18:18;;;;;;;6.65;1.10;;;25.30;34.10;;;;;;5115131;28;20032;-78
2021/05/23 11:20:58;;;;;;;4.65;1.00;;;25.30;34.10;;;;;;5117283;28;20040;-79
2021/05/23 11:23:25;;;;;;;5.95;1.17;;;25.10;33.40;;;;;;5098948;28;20051;-77
2021/05/23 11:26:03;;;;;;;2.58;0.70;;;25.20;33.70;;;;;;5116916;28;20032;-77
2021/05/23 11:28:29;;;;;;;1.88;0.77;;;25.30;33.70;;;;;;5116936;28;20119;-77
2021/05/23 11:30:55;;;;;;;2.45;1.00;;;25.20;33.30;;;;;;5098556;28;20123;-75
2021/05/23 11:33:21;;;;;;;3.38;1.10;;;25.20;33.50;;;;;;5116786;28;20039;-75
2021/05/23 11:35:50;;;;;;;3.58;1.10;;;25.20;33.70;;;;;;5098961;28;20054;-76
2021/05/23 11:38:16;;;;;;;3.05;1.10;;;25.30;33.80;;;;;;5116844;28;20035;-77
2021/05/23 11:40:43;;;;;;;2.65;0.80;;;25.30;33.60;;;;;;5116701;28;20176;-77
2021/05/23 11:43:21;;;;;;;2.42;0.90;;;25.30;33.90;;;;;;5116687;28;20122;-78
2021/05/23 11:45:58;;;;;;;1.77;0.80;;;25.30;34.40;;;;;;5098056;28;20134;-76
2021/05/23 11:48:35;;;;;;;5.03;1.20;;;25.30;34.00;;;;;;5116555;28;20096;-76
2021/05/23 11:51:02;;;;;;;3.85;1.10;;;25.30;34.20;;;;;;5116268;28;20032;-78
2021/05/23 11:53:45;;;;;;;1.85;0.98;;;25.40;34.40;;;;;;5116244;28;20061;-77
2021/05/23 11:56:17;;;;;;;5.75;1.55;;;25.30;34.50;;;;;;5116908;28;20067;-78
2021/05/23 11:59:05;;;;;;;6.15;1.20;;;25.30;34.50;;;;;;5116455;28;20126;-77
2021/05/23 12:01:54;;;;;;;5.05;1.10;;;25.30;34.40;;;;;;5116235;28;20100;-76
2021/05/23 12:04:20;;;;;;;4.80;1.02;;;25.30;34.30;;;;;;5097968;28;20101;-75
2021/05/23 12:06:49;;;;;;;3.60;0.93;;;25.40;34.10;;;;;;5097757;28;20487;-79
2021/05/23 12:09:17;;;;;;;4.40;1.10;;;25.40;34.30;;;;;;5116344;28;20035;-75
2021/05/23 12:11:55;;;;;;;7.57;1.17;;;25.40;34.30;;;;;;5115762;28;20035;-75
2021/05/23 12:14:34;;;;;;;2.60;0.90;;;25.30;34.30;;;;;;5081099;28;20027;-75
2021/05/23 12:17:09;;;;;;;2.60;1.00;;;25.20;34.20;;;;;;5116250;28;20035;-76
2021/05/23 12:20:14;;;;;;;2.42;0.90;;;25.30;34.40;;;;;;5116279;28;20483;-74
2021/05/23 12:22:38;;;;;;;4.75;0.90;;;25.20;34.30;;;;;;5111626;28;20420;-74
2021/05/23 12:25:04;;;;;;;3.22;0.90;;;25.20;34.10;;;;;;5116043;28;20411;-81
2021/05/23 12:27:34;;;;;;;3.55;1.05;;;25.30;34.10;;;;;;5115736;28;20023;-80
2021/05/23 12:30:15;;;;;;;4.72;1.23;;;25.30;34.20;;;;;;5096369;28;20039;-77
2021/05/23 12:32:44;;;;;;;1.73;0.98;;;25.20;34.50;;;;;;5115699;28;20032;-77
2021/05/23 12:35:15;;;;;;;3.13;1.00;;;25.30;34.70;;;;;;5115510;28;20059;-78
2021/05/23 12:38:07;;;;;;;5.00;1.40;;;25.30;34.40;;;;;;5097707;28;20043;-76
2021/05/23 12:40:40;;;;;;;5.32;0.93;;;25.30;34.50;;;;;;5097504;28;20101;-75
2021/05/23 12:43:23;;;;;;;3.92;0.90;;;25.30;34.30;;;;;;5115318;28;20043;-74
2021/05/23 12:46:02;;;;;;;3.90;1.15;;;25.30;33.90;;;;;;5076632;28;20468;-73
2021/05/23 12:48:36;;;;;;;2.67;0.80;;;25.40;34.20;;;;;;5095135;28;20075;-77
2021/05/23 12:51:11;;;;;;;3.50;0.95;;;25.40;34.10;;;;;;5094459;28;20060;-75